createdAt,value
2023-08-15T00:04:53.916Z,12.52
2023-08-15T00:10:16.610Z,12.18
2023-08-15T00:15:20.162Z,12.32
2023-08-15T00:20:23.181Z,12.25
2023-08-15T00:25:25.857Z,11.55
2023-08-15T00:30:28.291Z,12.38
2023-08-15T00:35:30.710Z,12.77
2023-08-15T00:40:33.358Z,12.77
2023-08-15T00:45:40.542Z,13.32
2023-08-15T00:50:44.699Z,12.40
2023-08-15T00:55:47.555Z,14.10
2023-08-15T01:00:52.118Z,13.73
2023-08-15T01:05:55.477Z,12.88
2023-08-15T01:10:58.201Z,12.70
2023-08-15T01:16:02.740Z,12.13
2023-08-15T01:21:07.373Z,12.80
2023-08-15T01:26:09.946Z,13.02
2023-08-15T01:31:36.455Z,12.52
2023-08-15T01:36:49.514Z,14.07
2023-08-15T01:41:54.664Z,14.38
2023-08-15T01:47:00.640Z,14.70
2023-08-15T01:52:03.103Z,13.75
2023-08-15T01:57:06.727Z,13.32
2023-08-15T02:02:09.171Z,14.18
2023-08-15T02:07:11.911Z,13.18
2023-08-15T02:12:16.632Z,13.38
2023-08-15T02:17:20.012Z,13.35
2023-08-15T02:22:23.179Z,13.90
2023-08-15T02:27:25.612Z,14.00
2023-08-15T02:32:28.228Z,13.10
2023-08-15T02:37:30.636Z,12.43
2023-08-15T02:42:33.835Z,12.65
2023-08-15T02:47:36.292Z,14.10
2023-08-15T02:52:38.740Z,12.80
2023-08-15T02:57:41.184Z,13.07
2023-08-15T03:02:43.654Z,13.90
2023-08-15T03:07:46.196Z,12.68
2023-08-15T03:12:49.374Z,13.48
2023-08-15T03:17:52.558Z,13.68
2023-08-15T03:22:55.553Z,13.55
2023-08-15T03:27:58.047Z,12.80
2023-08-15T03:33:01.014Z,13.32
2023-08-15T03:38:03.969Z,13.10
2023-08-15T03:43:08.568Z,13.10
2023-08-15T03:48:11.203Z,12.73
2023-08-15T03:53:13.685Z,12.85
2023-08-15T03:58:18.666Z,12.45
2023-08-15T04:03:21.121Z,12.23
2023-08-15T04:08:23.592Z,13.70
2023-08-15T04:13:26.093Z,13.57
2023-08-15T04:18:28.615Z,15.45
2023-08-15T04:23:33.526Z,14.48
2023-08-15T04:28:36.740Z,19.55
2023-08-15T04:33:39.221Z,15.68
2023-08-15T04:38:41.688Z,14.65
2023-08-15T04:43:44.403Z,13.70
2023-08-15T04:48:46.955Z,13.63
2023-08-15T04:53:49.423Z,14.52
2023-08-15T04:58:51.871Z,15.18
2023-08-15T05:03:54.479Z,12.95
2023-08-15T05:08:58.006Z,11.60
2023-08-15T05:14:02.658Z,11.20
2023-08-15T05:19:05.680Z,11.80
2023-08-15T05:24:09.449Z,11.10
2023-08-15T05:29:12.306Z,11.73
2023-08-15T05:34:14.807Z,10.90
2023-08-15T05:39:17.291Z,10.50
2023-08-15T05:44:20.886Z,11.27
2023-08-15T05:49:23.357Z,9.07
2023-08-15T05:54:25.764Z,9.43
2023-08-15T05:59:28.231Z,8.75
2023-08-15T06:04:30.761Z,8.10
2023-08-15T06:09:33.304Z,7.68
2023-08-15T06:14:38.355Z,7.88
2023-08-15T06:19:40.986Z,7.25
2023-08-15T06:24:43.855Z,7.72
2023-08-15T06:29:46.294Z,7.25
2023-08-15T06:34:49.021Z,7.10
2023-08-15T06:39:51.510Z,7.00
2023-08-15T06:45:17.488Z,7.32
2023-08-15T06:50:20.110Z,7.07
2023-08-15T06:55:22.573Z,6.32
2023-08-15T07:00:25.081Z,6.95
2023-08-15T07:05:27.493Z,6.65
2023-08-15T07:10:33.217Z,6.30
2023-08-15T07:15:35.728Z,5.95
2023-08-15T07:20:39.145Z,5.63
2023-08-15T07:25:44.893Z,5.75
2023-08-15T07:30:49.405Z,8.23
2023-08-15T07:35:54.457Z,6.47
2023-08-15T07:40:57.052Z,6.22
2023-08-15T07:45:59.658Z,6.40
2023-08-15T07:51:02.089Z,5.85
2023-08-15T07:56:04.823Z,5.53
2023-08-15T08:01:07.338Z,5.70
2023-08-15T08:06:26.346Z,5.25
2023-08-15T08:11:33.480Z,5.88
2023-08-15T08:16:35.889Z,5.40
2023-08-15T08:21:40.600Z,5.78
2023-08-15T08:26:43.079Z,5.40
2023-08-15T08:31:45.953Z,5.10
2023-08-15T08:36:48.461Z,5.22
2023-08-15T08:41:51.469Z,5.05
2023-08-15T08:46:53.993Z,4.93
2023-08-15T08:51:58.104Z,4.70
2023-08-15T08:57:04.276Z,4.90
2023-08-15T09:02:11.666Z,5.20
2023-08-15T09:07:14.143Z,4.60
2023-08-15T09:12:33.420Z,4.40
2023-08-15T09:17:36.231Z,4.38
2023-08-15T09:22:45.317Z,4.57
2023-08-15T09:27:48.480Z,4.30
2023-08-15T09:32:50.976Z,4.50
2023-08-15T09:37:53.635Z,4.43
2023-08-15T09:42:56.051Z,4.60
2023-08-15T09:47:59.347Z,4.40
2023-08-15T09:53:04.836Z,17.50
2023-08-15T09:58:07.540Z,4.40
2023-08-15T10:03:18.575Z,4.72
2023-08-15T10:08:21.957Z,4.57
2023-08-15T10:13:28.434Z,3.70
2023-08-15T10:18:31.937Z,3.22
2023-08-15T10:23:36.245Z,20.27
2023-08-15T10:28:41.186Z,4.20
2023-08-15T10:33:46.101Z,12.43
2023-08-15T10:38:53.815Z,4.07
2023-08-15T10:43:57.141Z,6.10
2023-08-15T10:49:11.580Z,3.80
2023-08-15T10:54:15.902Z,8.65
2023-08-15T10:59:20.768Z,4.72
2023-08-15T11:04:25.786Z,3.85
2023-08-15T11:09:32.150Z,11.75
2023-08-15T11:14:35.053Z,6.32
2023-08-15T11:19:37.824Z,5.40
2023-08-15T11:24:40.308Z,5.53
2023-08-15T11:29:42.992Z,4.13
2023-08-15T11:34:46.341Z,4.50
2023-08-15T11:39:53.442Z,9.68
2023-08-15T11:45:08.730Z,11.27
2023-08-15T11:50:11.477Z,20.00
2023-08-15T11:55:14.088Z,30.00
2023-08-15T12:00:18.045Z,11.55
2023-08-15T12:05:20.964Z,8.57
2023-08-15T12:10:23.384Z,14.13
2023-08-15T12:15:25.948Z,12.27
2023-08-15T12:20:28.437Z,6.57
2023-08-15T12:25:31.057Z,4.13
2023-08-15T12:30:34.380Z,6.38
2023-08-15T12:35:37.318Z,4.68
2023-08-15T12:40:42.116Z,4.80
2023-08-15T12:45:44.615Z,4.53
2023-08-15T12:50:47.384Z,4.30
2023-08-15T12:55:49.858Z,4.32
2023-08-15T13:00:52.542Z,4.35
2023-08-15T13:05:55.070Z,3.65
2023-08-15T13:11:00.693Z,3.50
2023-08-15T13:16:04.468Z,3.53
2023-08-15T13:21:07.107Z,3.45
2023-08-15T13:26:09.528Z,26.95
2023-08-15T13:31:12.097Z,6.95
2023-08-15T13:36:14.630Z,4.47
2023-08-15T13:41:17.111Z,4.13
2023-08-15T13:46:20.321Z,3.60
2023-08-15T13:51:22.881Z,4.10
2023-08-15T13:56:28.352Z,3.75
2023-08-15T14:01:33.474Z,4.22
2023-08-15T14:06:36.064Z,4.45
2023-08-15T14:11:38.590Z,4.28
2023-08-15T14:16:41.241Z,3.72
2023-08-15T14:21:44.793Z,3.80
2023-08-15T14:26:47.134Z,9.30
2023-08-15T14:31:49.590Z,3.63
2023-08-15T14:36:52.060Z,4.53
2023-08-15T14:41:54.514Z,3.20
2023-08-15T14:46:56.838Z,3.33
2023-08-15T14:51:59.279Z,8.15
2023-08-15T14:57:01.665Z,7.25
2023-08-15T15:02:04.363Z,3.42
2023-08-15T15:07:10.173Z,5.00
2023-08-15T15:12:12.547Z,3.80
2023-08-15T15:17:14.903Z,5.72
2023-08-15T15:22:17.416Z,3.50
2023-08-15T15:27:19.774Z,6.82
2023-08-15T15:32:22.583Z,3.45
2023-08-15T15:37:25.273Z,3.67
2023-08-15T15:42:27.682Z,5.55
2023-08-15T15:47:30.147Z,4.93
2023-08-15T15:52:32.864Z,3.38
2023-08-15T15:57:35.267Z,4.03
2023-08-15T16:02:37.648Z,8.15
2023-08-15T16:07:40.063Z,7.47
2023-08-15T16:12:42.579Z,8.32
2023-08-15T16:17:47.121Z,4.20
2023-08-15T16:22:49.696Z,5.43
2023-08-15T16:27:52.182Z,3.92
2023-08-15T16:32:55.293Z,4.97
2023-08-15T16:37:57.956Z,3.50
2023-08-15T16:43:17.382Z,3.33
2023-08-15T16:48:19.894Z,9.85
2023-08-15T16:53:22.374Z,6.68
2023-08-15T16:58:24.762Z,3.20
2023-08-15T17:03:27.248Z,3.20
2023-08-15T17:08:29.696Z,4.68
2023-08-15T17:13:32.271Z,6.50
2023-08-15T17:18:34.634Z,8.98
2023-08-15T17:23:36.995Z,5.45
2023-08-15T17:28:39.498Z,5.13
2023-08-15T17:33:42.115Z,5.95
2023-08-15T17:38:44.642Z,4.68
2023-08-15T17:43:47.143Z,9.05
2023-08-15T17:48:49.515Z,21.25
2023-08-15T17:53:51.859Z,15.88
2023-08-15T17:58:54.776Z,14.43
2023-08-15T18:04:05.244Z,9.30
2023-08-15T18:09:07.969Z,5.10
2023-08-15T18:14:10.413Z,6.45
2023-08-15T18:19:12.817Z,5.50
2023-08-15T18:24:15.297Z,5.40
2023-08-15T18:29:17.770Z,6.35
2023-08-15T18:34:20.633Z,15.70
2023-08-15T18:39:23.265Z,7.05
2023-08-15T18:44:25.721Z,7.43
2023-08-15T18:49:28.185Z,9.57
2023-08-15T18:54:30.583Z,9.13
2023-08-15T18:59:33.024Z,11.35
2023-08-15T19:04:35.415Z,44.30
2023-08-15T19:09:37.894Z,35.45
2023-08-15T19:14:40.325Z,29.80
2023-08-15T19:19:42.748Z,26.88
2023-08-15T19:24:45.707Z,18.48
2023-08-15T19:29:48.221Z,14.65
2023-08-15T19:34:51.271Z,12.82
2023-08-15T19:39:53.701Z,12.48
2023-08-15T19:44:56.161Z,11.52
2023-08-15T19:49:58.594Z,10.82
2023-08-15T19:55:01.869Z,10.98
2023-08-15T20:00:06.063Z,11.13
2023-08-15T20:05:10.592Z,10.25
2023-08-15T20:10:13.426Z,11.35
2023-08-15T20:15:16.127Z,12.23
2023-08-15T20:20:18.608Z,20.52
2023-08-15T20:25:20.996Z,18.30
2023-08-15T20:30:24.052Z,18.58
2023-08-15T20:35:26.936Z,17.05
2023-08-15T20:40:29.357Z,15.02
2023-08-15T20:45:31.758Z,12.00
2023-08-15T20:50:34.182Z,12.65
2023-08-15T20:55:36.561Z,12.63
2023-08-15T21:00:38.989Z,11.60
2023-08-15T21:05:43.242Z,12.10
2023-08-15T21:10:45.683Z,11.60
2023-08-15T21:15:48.135Z,12.68
2023-08-15T21:20:50.913Z,11.15
2023-08-15T21:25:53.386Z,11.45
2023-08-15T21:30:56.865Z,11.95
2023-08-15T21:35:59.718Z,11.38
2023-08-15T21:41:02.112Z,12.27
2023-08-15T21:46:04.586Z,19.48
2023-08-15T21:51:07.210Z,24.05
2023-08-15T21:56:09.948Z,27.45
2023-08-15T22:01:12.405Z,23.00
2023-08-15T22:06:14.984Z,18.75
2023-08-15T22:11:17.374Z,16.38
2023-08-15T22:16:19.789Z,12.30
2023-08-15T22:21:22.193Z,11.48
2023-08-15T22:26:24.585Z,12.02
2023-08-15T22:31:27.027Z,12.38
2023-08-15T22:36:30.210Z,12.48
2023-08-15T22:41:32.596Z,12.07
2023-08-15T22:46:35.016Z,11.65
2023-08-15T22:51:37.382Z,11.23
2023-08-15T22:56:39.732Z,11.23
2023-08-15T23:01:42.172Z,12.35
2023-08-15T23:06:44.655Z,13.30
2023-08-15T23:11:47.684Z,13.75
2023-08-15T23:16:50.074Z,13.98
2023-08-15T23:21:52.418Z,14.63
2023-08-15T23:26:54.881Z,13.32
2023-08-15T23:31:59.699Z,12.52
2023-08-15T23:37:02.420Z,12.25
2023-08-15T23:42:04.955Z,12.63
2023-08-15T23:47:07.394Z,12.50
2023-08-15T23:52:09.778Z,13.25
2023-08-15T23:57:12.221Z,12.15
